createdAt,value
2023-08-16T00:01:25.038Z,26.00
2023-08-16T00:03:51.992Z,26.00
2023-08-16T00:06:19.028Z,26.00
2023-08-16T00:08:45.743Z,26.00
2023-08-16T00:11:12.416Z,26.00
2023-08-16T00:13:39.752Z,26.00
2023-08-16T00:16:06.554Z,26.00
2023-08-16T00:18:33.327Z,26.00
2023-08-16T00:21:00.900Z,26.00
2023-08-16T00:23:28.450Z,25.90
2023-08-16T00:25:55.382Z,25.90
2023-08-16T00:28:22.093Z,26.00
2023-08-16T00:30:54.173Z,26.00
2023-08-16T00:33:22.341Z,26.00
2023-08-16T00:35:50.173Z,26.00
2023-08-16T00:38:16.849Z,26.00
2023-08-16T00:40:54.234Z,26.00
2023-08-16T00:43:20.921Z,26.00
2023-08-16T00:45:49.699Z,25.90
2023-08-16T00:48:17.936Z,25.90
2023-08-16T00:50:45.588Z,25.90
2023-08-16T00:53:14.975Z,25.90
2023-08-16T00:55:42.004Z,25.90
2023-08-16T00:58:08.998Z,25.80
2023-08-16T01:00:35.812Z,25.90
2023-08-16T01:03:02.658Z,25.90
2023-08-16T01:05:30.183Z,25.90
2023-08-16T01:07:56.922Z,25.90
2023-08-16T01:10:50.608Z,25.90
2023-08-16T01:13:27.197Z,25.90
2023-08-16T01:15:56.643Z,25.90
2023-08-16T01:18:26.154Z,25.90
2023-08-16T01:20:54.650Z,25.90
2023-08-16T01:23:33.075Z,25.90
2023-08-16T01:26:11.720Z,25.90
2023-08-16T01:28:40.055Z,25.90
2023-08-16T01:31:07.242Z,25.90
2023-08-16T01:33:34.010Z,25.90
2023-08-16T01:36:00.675Z,25.80
2023-08-16T01:38:27.639Z,25.70
2023-08-16T01:41:02.555Z,25.80
2023-08-16T01:43:30.630Z,25.70
2023-08-16T01:45:59.776Z,25.70
2023-08-16T01:48:27.530Z,25.70
2023-08-16T01:50:54.620Z,25.70
2023-08-16T01:53:21.378Z,25.70
2023-08-16T01:55:48.149Z,25.70
2023-08-16T01:58:14.946Z,25.70
2023-08-16T02:00:41.668Z,25.70
2023-08-16T02:03:08.518Z,25.70
2023-08-16T02:05:35.323Z,25.60
2023-08-16T02:08:02.096Z,25.60
2023-08-16T02:10:28.848Z,25.50
2023-08-16T02:12:55.539Z,25.50
2023-08-16T02:15:22.319Z,25.50
2023-08-16T02:17:49.012Z,25.50
2023-08-16T02:20:15.821Z,25.50
2023-08-16T02:22:43.640Z,25.50
2023-08-16T02:25:12.081Z,25.40
2023-08-16T02:27:38.881Z,25.50
2023-08-16T02:30:06.611Z,25.50
2023-08-16T02:32:34.357Z,25.50
2023-08-16T02:35:01.200Z,25.40
2023-08-16T02:37:27.862Z,25.40
2023-08-16T02:39:54.679Z,25.40
2023-08-16T02:42:21.346Z,25.40
2023-08-16T02:44:48.495Z,25.40
2023-08-16T02:47:15.807Z,25.40
2023-08-16T02:49:42.614Z,25.40
2023-08-16T02:52:09.895Z,25.40
2023-08-16T02:54:36.621Z,25.40
2023-08-16T02:57:03.436Z,25.40
2023-08-16T02:59:43.673Z,25.40
2023-08-16T03:02:10.439Z,25.40
2023-08-16T03:04:43.116Z,25.40
2023-08-16T03:07:11.598Z,25.40
2023-08-16T03:09:39.309Z,25.40
2023-08-16T03:12:08.070Z,25.40
2023-08-16T03:14:34.905Z,25.30
2023-08-16T03:17:01.999Z,25.30
2023-08-16T03:19:28.748Z,25.30
2023-08-16T03:21:57.460Z,25.30
2023-08-16T03:24:24.375Z,25.20
2023-08-16T03:26:51.822Z,25.20
2023-08-16T03:29:19.599Z,25.20
2023-08-16T03:31:47.362Z,25.20
2023-08-16T03:34:14.917Z,25.20
2023-08-16T03:36:41.696Z,25.20
2023-08-16T03:39:08.484Z,25.20
2023-08-16T03:41:35.549Z,25.10
2023-08-16T03:44:02.746Z,25.10
2023-08-16T03:46:29.536Z,25.10
2023-08-16T03:48:56.739Z,25.10
2023-08-16T03:51:23.524Z,25.10
2023-08-16T03:53:50.237Z,25.10
2023-08-16T03:56:17.063Z,25.10
2023-08-16T03:58:44.047Z,25.10
2023-08-16T04:01:10.765Z,25.10
2023-08-16T04:03:37.753Z,25.10
2023-08-16T04:06:11.569Z,25.10
2023-08-16T04:08:41.500Z,25.10
2023-08-16T04:11:08.594Z,25.00
2023-08-16T04:13:35.585Z,25.00
2023-08-16T04:16:02.409Z,25.00
2023-08-16T04:18:29.906Z,25.00
2023-08-16T04:20:57.559Z,25.10
2023-08-16T04:23:24.797Z,25.10
2023-08-16T04:25:51.965Z,25.10
2023-08-16T04:28:18.837Z,25.10
2023-08-16T04:30:45.578Z,25.10
2023-08-16T04:33:12.300Z,25.20
2023-08-16T04:35:39.059Z,25.10
2023-08-16T04:38:05.849Z,25.10
2023-08-16T04:40:32.682Z,25.10
2023-08-16T04:42:59.384Z,25.10
2023-08-16T04:45:26.059Z,25.10
2023-08-16T04:47:52.955Z,25.10
2023-08-16T04:50:19.748Z,25.10
2023-08-16T04:52:46.526Z,25.10
2023-08-16T04:55:13.287Z,25.10
2023-08-16T04:57:40.032Z,25.10
2023-08-16T05:00:09.828Z,25.10
2023-08-16T05:02:36.604Z,25.20
2023-08-16T05:05:03.955Z,25.20
2023-08-16T05:07:30.826Z,25.20
2023-08-16T05:09:57.557Z,25.20
2023-08-16T05:12:24.277Z,25.30
2023-08-16T05:14:51.012Z,25.40
2023-08-16T05:17:17.873Z,25.40
2023-08-16T05:19:44.605Z,25.40
2023-08-16T05:22:11.433Z,25.40
2023-08-16T05:24:38.218Z,25.40
2023-08-16T05:27:05.000Z,25.40
2023-08-16T05:29:31.742Z,25.40
2023-08-16T05:31:59.304Z,25.40
2023-08-16T05:34:26.138Z,25.40
2023-08-16T05:36:54.783Z,25.40
2023-08-16T05:39:21.598Z,25.40
2023-08-16T05:41:48.301Z,25.40
2023-08-16T05:44:15.151Z,25.40
2023-08-16T05:46:42.023Z,25.40
2023-08-16T05:49:08.846Z,25.40
2023-08-16T05:51:35.743Z,25.40
2023-08-16T05:54:05.768Z,25.40
2023-08-16T05:56:32.545Z,25.40
2023-08-16T05:58:59.292Z,25.40
2023-08-16T06:01:26.684Z,25.40
2023-08-16T06:03:53.664Z,25.40
2023-08-16T06:06:20.566Z,25.40
2023-08-16T06:08:47.256Z,25.30
2023-08-16T06:11:14.021Z,25.30
2023-08-16T06:13:41.713Z,25.40
2023-08-16T06:16:08.683Z,25.30
2023-08-16T06:18:35.374Z,25.30
2023-08-16T06:21:02.188Z,25.30
2023-08-16T06:23:28.915Z,25.30
2023-08-16T06:25:55.610Z,25.40
2023-08-16T06:28:22.275Z,25.40
2023-08-16T06:30:49.108Z,25.40
2023-08-16T06:33:15.973Z,25.50
2023-08-16T06:35:52.772Z,25.40
2023-08-16T06:38:20.136Z,25.40
2023-08-16T06:40:46.876Z,25.40
2023-08-16T06:43:13.666Z,25.40
2023-08-16T06:45:40.427Z,25.40
2023-08-16T06:48:07.338Z,25.40
2023-08-16T06:50:34.192Z,25.30
2023-08-16T06:53:00.984Z,25.30
2023-08-16T06:55:27.801Z,25.40
2023-08-16T06:57:54.569Z,25.30
2023-08-16T07:00:21.831Z,25.40
2023-08-16T07:02:50.003Z,25.40
2023-08-16T07:05:17.144Z,25.40
2023-08-16T07:07:43.864Z,25.40
2023-08-16T07:10:10.733Z,25.40
2023-08-16T07:12:37.535Z,25.40
2023-08-16T07:15:04.657Z,25.40
2023-08-16T07:17:31.374Z,25.40
2023-08-16T07:20:00.775Z,25.40
2023-08-16T07:22:28.754Z,25.40
2023-08-16T07:24:55.743Z,25.40
2023-08-16T07:27:22.828Z,25.50
2023-08-16T07:29:49.667Z,25.50
2023-08-16T07:32:16.598Z,25.60
2023-08-16T07:34:44.665Z,25.60
2023-08-16T07:37:14.592Z,25.60
2023-08-16T07:39:44.217Z,25.70
2023-08-16T07:42:11.210Z,25.70
2023-08-16T07:44:41.268Z,25.70
2023-08-16T07:47:08.351Z,25.70
2023-08-16T07:49:35.654Z,25.70
2023-08-16T07:52:05.490Z,25.70
2023-08-16T07:54:32.765Z,25.80
2023-08-16T07:57:10.624Z,25.80
2023-08-16T07:59:42.676Z,25.80
2023-08-16T08:02:18.020Z,25.80
2023-08-16T08:04:55.596Z,25.90
2023-08-16T08:07:30.236Z,25.90
2023-08-16T08:10:01.700Z,25.90
2023-08-16T08:12:30.329Z,25.90
2023-08-16T08:14:59.111Z,26.00
2023-08-16T08:17:26.061Z,26.00
2023-08-16T08:19:53.210Z,26.10
2023-08-16T08:22:19.974Z,26.20
2023-08-16T08:24:46.728Z,26.20
2023-08-16T08:27:13.602Z,26.30
2023-08-16T08:29:41.527Z,26.40
2023-08-16T08:32:08.417Z,26.60
2023-08-16T08:34:38.755Z,26.80
2023-08-16T08:37:05.588Z,26.90
2023-08-16T08:39:33.781Z,27.10
2023-08-16T08:42:03.165Z,27.20
2023-08-16T08:44:31.218Z,27.30
2023-08-16T08:47:03.688Z,27.50
2023-08-16T08:49:39.247Z,27.60
2023-08-16T08:52:37.171Z,27.90
2023-08-16T08:55:04.488Z,28.00
2023-08-16T08:57:32.072Z,28.20
2023-08-16T09:00:01.353Z,28.40
2023-08-16T09:02:42.646Z,28.50
2023-08-16T09:05:11.208Z,28.60
2023-08-16T09:07:45.771Z,28.70
2023-08-16T09:10:13.881Z,28.70
2023-08-16T09:12:40.931Z,28.70
2023-08-16T09:15:08.895Z,28.70
2023-08-16T09:17:36.384Z,28.80
2023-08-16T09:20:06.992Z,28.90
2023-08-16T09:26:19.263Z,28.80
2023-08-16T09:29:25.662Z,28.70
2023-08-16T09:31:52.724Z,28.60
2023-08-16T09:34:35.286Z,28.60
2023-08-16T09:37:04.480Z,28.60
2023-08-16T09:39:31.673Z,28.60
2023-08-16T09:41:58.759Z,28.60
2023-08-16T09:44:31.235Z,28.70
2023-08-16T09:49:29.236Z,28.70
2023-08-16T09:52:16.428Z,28.70
2023-08-16T09:54:43.288Z,28.60
2023-08-16T09:59:41.504Z,28.60
2023-08-16T10:02:14.740Z,28.60
2023-08-16T10:07:13.662Z,28.50
2023-08-16T10:09:44.552Z,28.50
2023-08-16T10:12:12.028Z,28.50
2023-08-16T10:14:41.535Z,28.50
2023-08-16T10:17:10.421Z,28.50
2023-08-16T10:19:45.134Z,28.50
2023-08-16T10:22:34.410Z,28.50
2023-08-16T10:25:19.050Z,28.60
2023-08-16T10:27:46.713Z,28.60
2023-08-16T10:30:23.234Z,28.60
2023-08-16T10:32:58.779Z,28.60
2023-08-16T10:35:26.516Z,28.60
2023-08-16T10:37:58.650Z,28.60
2023-08-16T10:40:26.724Z,28.60
2023-08-16T10:42:57.545Z,28.70
2023-08-16T10:45:54.977Z,28.70
2023-08-16T10:48:21.911Z,28.70
2023-08-16T10:51:26.572Z,28.80
2023-08-16T10:54:09.066Z,28.70
2023-08-16T10:56:50.606Z,28.70
2023-08-16T10:59:17.743Z,28.80
2023-08-16T11:01:50.540Z,28.80
2023-08-16T11:04:17.930Z,28.90
2023-08-16T11:06:55.765Z,29.20
2023-08-16T11:10:19.551Z,29.30
2023-08-16T11:12:53.811Z,29.40
2023-08-16T11:15:26.864Z,29.50
2023-08-16T11:18:09.019Z,29.60
2023-08-16T11:20:37.699Z,29.60
2023-08-16T11:23:26.972Z,29.70
2023-08-16T11:26:00.328Z,29.80
2023-08-16T11:28:44.958Z,29.80
2023-08-16T11:31:33.512Z,29.90
2023-08-16T11:34:00.568Z,29.90
2023-08-16T11:36:27.299Z,29.90
2023-08-16T11:38:54.486Z,30.00
2023-08-16T11:41:22.479Z,30.00
2023-08-16T11:43:59.735Z,30.10
2023-08-16T11:46:27.328Z,30.20
2023-08-16T11:48:55.395Z,30.40
2023-08-16T11:51:22.302Z,30.80
2023-08-16T11:53:49.085Z,31.30
2023-08-16T11:56:15.788Z,31.70
2023-08-16T11:58:47.351Z,32.20
2023-08-16T12:01:18.200Z,32.70
2023-08-16T12:03:46.278Z,33.10
2023-08-16T12:06:14.049Z,33.50
2023-08-16T12:08:51.873Z,33.80
2023-08-16T12:11:33.860Z,33.90
2023-08-16T12:14:03.918Z,34.00
2023-08-16T12:16:32.617Z,33.90
2023-08-16T12:19:02.702Z,33.80
2023-08-16T12:21:29.610Z,33.80
2023-08-16T12:23:57.003Z,33.80
2023-08-16T12:26:23.837Z,33.80
2023-08-16T12:28:50.621Z,33.80
2023-08-16T12:31:17.707Z,33.80
2023-08-16T12:33:45.911Z,33.90
2023-08-16T12:36:13.918Z,33.90
2023-08-16T12:38:41.705Z,33.90
2023-08-16T12:41:10.054Z,34.10
2023-08-16T12:43:40.711Z,34.30
2023-08-16T12:46:08.955Z,34.70
2023-08-16T12:48:36.798Z,35.10
2023-08-16T12:51:04.926Z,35.30
2023-08-16T12:53:32.234Z,35.70
2023-08-16T12:55:59.731Z,35.80
2023-08-16T13:01:06.291Z,36.10
2023-08-16T13:03:34.621Z,36.20
2023-08-16T13:08:33.489Z,36.30
2023-08-16T13:11:32.268Z,36.30
2023-08-16T13:14:01.202Z,36.20
2023-08-16T13:16:30.810Z,36.10
2023-08-16T13:24:37.735Z,35.50
2023-08-16T13:27:05.631Z,35.30
2023-08-16T13:29:57.001Z,35.10
2023-08-16T13:32:27.207Z,35.00
2023-08-16T13:34:58.474Z,34.90
2023-08-16T13:42:56.064Z,34.80
2023-08-16T13:45:23.406Z,34.80
2023-08-16T13:47:50.288Z,34.90
2023-08-16T13:50:17.309Z,35.00
2023-08-16T13:52:44.296Z,35.30
2023-08-16T13:55:13.071Z,35.80
2023-08-16T13:57:39.842Z,36.10
2023-08-16T14:00:11.330Z,36.50
2023-08-16T14:02:40.420Z,37.00
2023-08-16T14:05:21.187Z,37.50
2023-08-16T14:07:50.637Z,38.00
2023-08-16T14:10:21.014Z,38.40
2023-08-16T14:12:48.213Z,38.90
2023-08-16T14:15:15.384Z,39.20
2023-08-16T14:17:44.507Z,39.60
2023-08-16T14:20:11.838Z,39.80
2023-08-16T14:22:38.970Z,40.10
2023-08-16T14:25:13.529Z,40.40
2023-08-16T14:27:40.367Z,40.70
2023-08-16T14:30:08.100Z,40.70
2023-08-16T14:32:35.063Z,40.60
2023-08-16T14:35:01.929Z,40.70
2023-08-16T14:37:28.696Z,40.90
2023-08-16T14:39:55.791Z,40.80
2023-08-16T14:42:22.704Z,40.70
2023-08-16T14:44:49.413Z,40.70
2023-08-16T14:47:16.146Z,40.70
2023-08-16T14:49:44.098Z,40.80
2023-08-16T14:52:11.027Z,40.80
2023-08-16T14:54:37.856Z,40.60
2023-08-16T14:57:04.717Z,40.40
2023-08-16T14:59:31.524Z,40.10
2023-08-16T15:01:58.446Z,39.80
2023-08-16T15:04:27.319Z,39.50
2023-08-16T15:06:56.592Z,39.20
2023-08-16T15:09:25.422Z,39.00
2023-08-16T15:11:52.704Z,38.80
2023-08-16T15:14:19.592Z,38.40
2023-08-16T15:16:46.431Z,38.20
2023-08-16T15:19:13.192Z,37.90
2023-08-16T15:21:40.885Z,37.80
2023-08-16T15:24:08.614Z,37.80
2023-08-16T15:26:35.336Z,37.80
2023-08-16T15:29:02.070Z,37.90
2023-08-16T15:31:28.972Z,37.90
2023-08-16T15:33:55.953Z,38.10
2023-08-16T15:36:22.769Z,38.20
2023-08-16T15:38:52.676Z,38.30
2023-08-16T15:41:20.670Z,38.40
2023-08-16T15:43:47.599Z,38.60
2023-08-16T15:46:15.064Z,38.70
2023-08-16T15:48:42.043Z,38.80
2023-08-16T15:51:08.912Z,38.90
2023-08-16T15:53:35.637Z,39.00
2023-08-16T15:56:06.120Z,39.10
2023-08-16T15:58:32.913Z,39.20
2023-08-16T16:01:01.729Z,39.20
2023-08-16T16:03:30.000Z,39.30
2023-08-16T16:05:56.919Z,39.40
2023-08-16T16:08:24.149Z,39.50
2023-08-16T16:10:51.518Z,39.60
2023-08-16T16:13:18.335Z,39.60
2023-08-16T16:15:45.471Z,39.40
2023-08-16T16:18:12.459Z,39.40
2023-08-16T16:20:46.076Z,39.30
2023-08-16T16:23:12.861Z,39.20
2023-08-16T16:25:39.703Z,39.10
2023-08-16T16:28:06.883Z,38.90
2023-08-16T16:30:33.815Z,38.80
2023-08-16T16:33:00.806Z,38.60
2023-08-16T16:35:28.013Z,38.40
2023-08-16T16:38:10.894Z,38.20
2023-08-16T16:44:16.796Z,37.80
2023-08-16T16:50:05.482Z,37.50
2023-08-16T16:52:45.248Z,37.30
2023-08-16T16:55:12.209Z,37.20
2023-08-16T16:57:39.523Z,37.00
2023-08-16T17:00:07.259Z,36.80
2023-08-16T17:02:34.401Z,36.70
2023-08-16T17:05:01.338Z,36.50
2023-08-16T17:07:28.500Z,36.40
2023-08-16T17:09:55.352Z,36.30
2023-08-16T17:12:22.009Z,36.10
2023-08-16T17:14:48.693Z,36.00
2023-08-16T17:17:15.545Z,35.90
2023-08-16T17:19:42.304Z,35.70
2023-08-16T17:22:08.992Z,35.50
2023-08-16T17:24:35.913Z,35.30
2023-08-16T17:27:11.208Z,35.10
2023-08-16T17:29:37.953Z,35.00
2023-08-16T17:32:06.713Z,34.80
2023-08-16T17:34:33.400Z,34.60
2023-08-16T17:37:00.115Z,34.50
2023-08-16T17:39:27.332Z,34.30
2023-08-16T17:41:54.110Z,34.10
2023-08-16T17:44:20.866Z,34.00
2023-08-16T17:46:48.862Z,33.80
2023-08-16T17:49:15.676Z,33.60
2023-08-16T17:51:42.515Z,33.40
2023-08-16T17:54:09.226Z,33.30
2023-08-16T17:56:36.014Z,33.20
2023-08-16T17:59:02.812Z,33.00
2023-08-16T18:01:30.336Z,32.80
2023-08-16T18:04:00.246Z,32.70
2023-08-16T18:06:27.377Z,32.50
2023-08-16T18:08:54.329Z,32.40
2023-08-16T18:11:21.463Z,32.20
2023-08-16T18:13:48.371Z,32.10
2023-08-16T18:16:15.154Z,31.80
2023-08-16T18:18:41.906Z,31.70
2023-08-16T18:21:08.698Z,31.60
2023-08-16T18:23:35.550Z,31.40
2023-08-16T18:26:02.360Z,31.30
2023-08-16T18:28:29.205Z,31.10
2023-08-16T18:30:56.298Z,31.00
2023-08-16T18:33:23.091Z,30.90
2023-08-16T18:35:50.465Z,30.80
2023-08-16T18:38:17.319Z,30.70
2023-08-16T18:40:44.119Z,30.60
2023-08-16T18:43:10.839Z,30.50
2023-08-16T18:45:37.605Z,30.30
2023-08-16T18:48:12.189Z,30.20
2023-08-16T18:50:39.198Z,30.10
2023-08-16T18:53:07.467Z,30.00
2023-08-16T18:55:38.212Z,29.90
2023-08-16T18:58:08.350Z,29.80
2023-08-16T19:00:35.310Z,29.80
2023-08-16T19:03:02.174Z,29.70
2023-08-16T19:05:30.430Z,29.60
2023-08-16T19:07:57.282Z,29.50
2023-08-16T19:10:25.207Z,29.40
2023-08-16T19:12:52.080Z,29.40
2023-08-16T19:15:18.792Z,29.30
2023-08-16T19:17:45.581Z,29.30
2023-08-16T19:20:12.505Z,29.20
2023-08-16T19:22:39.332Z,29.10
2023-08-16T19:25:06.389Z,29.00
2023-08-16T19:27:33.477Z,28.90
2023-08-16T19:30:00.284Z,28.90
2023-08-16T19:32:27.679Z,28.90
2023-08-16T19:34:54.869Z,28.80
2023-08-16T19:37:21.814Z,28.80
2023-08-16T19:39:52.912Z,28.70
2023-08-16T19:42:19.785Z,28.70
2023-08-16T19:44:46.507Z,28.60
2023-08-16T19:47:13.235Z,28.60
2023-08-16T19:49:39.970Z,28.60
2023-08-16T19:52:06.764Z,28.50
2023-08-16T19:54:33.475Z,28.50
2023-08-16T19:57:00.288Z,28.50
2023-08-16T19:59:27.072Z,28.40
2023-08-16T20:01:53.938Z,28.40
2023-08-16T20:04:20.748Z,28.40
2023-08-16T20:06:47.515Z,28.40
2023-08-16T20:09:14.182Z,28.30
2023-08-16T20:11:41.030Z,28.20
2023-08-16T20:14:07.832Z,28.30
2023-08-16T20:16:37.232Z,28.20
2023-08-16T20:19:04.794Z,28.20
2023-08-16T20:21:31.506Z,28.20
2023-08-16T20:23:59.288Z,28.10
2023-08-16T20:26:26.086Z,28.00
2023-08-16T20:28:52.891Z,28.00
2023-08-16T20:31:21.074Z,27.90
2023-08-16T20:33:50.109Z,27.90
2023-08-16T20:36:16.866Z,27.90
2023-08-16T20:38:43.669Z,27.90
2023-08-16T20:41:10.394Z,27.80
2023-08-16T20:43:37.158Z,27.80
2023-08-16T20:46:05.737Z,27.70
2023-08-16T20:48:32.973Z,27.70
2023-08-16T20:51:01.199Z,27.70
2023-08-16T20:54:00.610Z,27.60
2023-08-16T20:56:37.727Z,27.60
2023-08-16T20:59:04.585Z,27.50
2023-08-16T21:01:31.364Z,27.40
2023-08-16T21:04:00.049Z,27.40
2023-08-16T21:06:26.844Z,27.40
2023-08-16T21:08:53.615Z,27.40
2023-08-16T21:11:20.464Z,27.40
2023-08-16T21:13:47.853Z,27.40
2023-08-16T21:16:14.572Z,27.30
2023-08-16T21:18:41.246Z,27.40
2023-08-16T21:21:07.987Z,27.40
2023-08-16T21:23:34.636Z,27.40
2023-08-16T21:26:01.283Z,27.40
2023-08-16T21:28:28.031Z,27.40
2023-08-16T21:30:54.856Z,27.40
2023-08-16T21:33:21.593Z,27.40
2023-08-16T21:35:52.592Z,27.40
2023-08-16T21:38:19.534Z,27.40
2023-08-16T21:40:46.416Z,27.50
2023-08-16T21:43:13.287Z,27.40
2023-08-16T21:45:41.546Z,27.40
2023-08-16T21:48:11.904Z,27.40
2023-08-16T21:50:38.864Z,27.40
2023-08-16T21:53:05.718Z,27.40
2023-08-16T21:55:44.568Z,27.40
2023-08-16T21:58:24.801Z,27.40
2023-08-16T22:01:00.636Z,27.50
2023-08-16T22:03:37.493Z,27.50
2023-08-16T22:08:54.740Z,27.50
2023-08-16T22:11:21.423Z,27.50
2023-08-16T22:13:48.210Z,27.50
2023-08-16T22:16:15.112Z,27.50
2023-08-16T22:18:42.033Z,27.50
2023-08-16T22:21:10.800Z,27.50
2023-08-16T22:23:38.104Z,27.50
2023-08-16T22:26:08.077Z,27.50
2023-08-16T22:28:35.560Z,27.40
2023-08-16T22:31:02.605Z,27.20
2023-08-16T22:33:29.515Z,27.00
2023-08-16T22:35:56.447Z,26.60
2023-08-16T22:38:23.305Z,26.30
2023-08-16T22:40:50.111Z,26.00
2023-08-16T22:43:16.799Z,25.80
2023-08-16T22:45:43.556Z,25.60
2023-08-16T22:48:10.530Z,25.40
2023-08-16T22:50:37.365Z,25.30
2023-08-16T22:53:04.339Z,25.10
2023-08-16T22:55:31.175Z,25.00
2023-08-16T22:57:57.964Z,24.80
2023-08-16T23:00:24.808Z,24.70
2023-08-16T23:02:51.583Z,24.60
2023-08-16T23:05:18.359Z,24.50
2023-08-16T23:07:45.063Z,24.50
2023-08-16T23:10:11.817Z,24.50
2023-08-16T23:12:38.487Z,24.60
2023-08-16T23:15:05.615Z,24.70
2023-08-16T23:17:32.321Z,24.80
2023-08-16T23:19:59.154Z,24.90
2023-08-16T23:22:25.852Z,25.00
2023-08-16T23:24:52.616Z,25.00
2023-08-16T23:27:19.497Z,25.10
2023-08-16T23:29:46.234Z,25.20
2023-08-16T23:32:12.910Z,25.20
2023-08-16T23:34:39.604Z,25.20
2023-08-16T23:37:06.786Z,25.30
2023-08-16T23:39:33.689Z,25.30
2023-08-16T23:42:01.169Z,25.40
2023-08-16T23:44:28.182Z,25.40
2023-08-16T23:46:55.020Z,25.40
2023-08-16T23:49:22.030Z,25.40
2023-08-16T23:51:49.580Z,25.50
2023-08-16T23:54:16.442Z,25.60
2023-08-16T23:56:43.167Z,25.60
2023-08-16T23:59:10.205Z,25.70
